Time;durP1;ratioP1;P1;durP2;ratioP2;P2;SDS_P1;SDS_P2;PMS_P1;PMS_P2;Temp;Humidity;BMP_temperature;BMP_pressure;BME280_temperature;BME280_humidity;BME280_pressure;Samples;Min_cycle;Max_cycle;Signal;HPM_P1;HPM_P2
2023/05/31 00:01:09;;;;;;;1.83;1.23;;;19.80;46.50;19.00;96804.00;;;;6112740;23;20186;-77
2023/05/31 00:03:40;;;;;;;3.87;1.10;;;19.80;46.60;18.90;96809.00;;;;6139428;23;20195;-77
2023/05/31 00:06:08;;;;;;;2.10;1.40;;;19.70;46.60;18.90;96808.00;;;;6105980;23;20210;-78
2023/05/31 00:08:35;;;;;;;1.67;1.50;;;19.70;46.70;18.80;96813.00;;;;6105716;23;20199;-78
2023/05/31 00:11:02;;;;;;;1.70;1.00;;;19.60;46.50;18.80;96808.00;;;;6106866;23;20179;-77
2023/05/31 00:13:29;;;;;;;1.60;1.00;;;19.60;46.70;18.70;96806.00;;;;6101354;23;20202;-79
2023/05/31 00:15:56;;;;;;;2.27;1.13;;;19.60;46.70;18.70;96806.00;;;;6096367;23;20172;-78
2023/05/31 00:18:25;;;;;;;1.40;1.20;;;19.50;46.70;18.70;96810.00;;;;6095543;23;20659;-78
2023/05/31 00:20:52;;;;;;;1.40;1.30;;;19.50;46.50;18.60;96809.00;;;;6098702;23;20175;-79
2023/05/31 00:23:20;;;;;;;2.23;1.20;;;19.40;46.40;18.60;96803.00;;;;6098493;23;20254;-79
2023/05/31 00:25:47;;;;;;;1.33;1.17;;;19.40;46.70;18.50;96815.00;;;;6098672;23;20250;-79
2023/05/31 00:28:15;;;;;;;1.20;1.00;;;19.40;47.30;18.50;96808.00;;;;6098487;23;20738;-78
2023/05/31 00:30:42;;;;;;;1.70;1.10;;;19.30;46.70;18.40;96817.00;;;;6098698;23;20275;-79
2023/05/31 00:33:10;;;;;;;1.80;1.03;;;19.30;46.80;18.40;96803.00;;;;6096435;23;20265;-78
2023/05/31 00:35:39;;;;;;;1.10;1.00;;;19.20;46.80;18.40;96812.00;;;;6096843;23;20251;-78
2023/05/31 00:38:08;;;;;;;1.43;1.10;;;19.20;46.90;18.30;96811.00;;;;6073209;23;20178;-78
2023/05/31 00:40:36;;;;;;;2.30;1.20;;;19.20;47.00;18.30;96814.00;;;;6098682;23;20176;-79
2023/05/31 00:43:03;;;;;;;2.03;1.20;;;19.10;47.00;18.30;96812.00;;;;6099167;23;20207;-78
2023/05/31 00:45:32;;;;;;;1.23;1.10;;;19.10;46.70;18.30;96818.00;;;;6101607;23;20203;-79
2023/05/31 00:48:01;;;;;;;1.23;0.90;;;19.10;46.70;18.20;96812.00;;;;6097644;23;20564;-78
2023/05/31 00:50:29;;;;;;;1.30;1.07;;;19.10;46.90;18.20;96818.00;;;;6097151;23;20218;-78
2023/05/31 00:53:00;;;;;;;2.10;1.20;;;19.00;46.70;18.20;96815.00;;;;6098399;23;20251;-78
2023/05/31 00:55:30;;;;;;;1.97;1.10;;;19.00;46.80;18.20;96816.00;;;;6097179;23;20480;-78
2023/05/31 00:57:58;;;;;;;1.60;0.73;;;19.00;46.80;18.10;96816.00;;;;6096790;23;20738;-79
2023/05/31 01:00:26;;;;;;;1.80;1.10;;;18.90;46.60;18.10;96815.00;;;;6096701;23;20176;-78
2023/05/31 01:02:53;;;;;;;1.10;0.90;;;18.90;46.70;18.10;96816.00;;;;6096896;23;20258;-78
2023/05/31 01:05:21;;;;;;;1.83;1.10;;;18.90;46.80;18.00;96822.00;;;;6103424;23;20606;-78
2023/05/31 01:07:48;;;;;;;1.10;1.00;;;18.90;46.90;18.00;96821.00;;;;6125275;23;20195;-77
2023/05/31 01:10:20;;;;;;;1.13;0.93;;;18.90;46.70;17.90;96806.00;;;;6125336;23;20201;-78
2023/05/31 01:13:06;;;;;;;1.67;1.00;;;18.80;46.40;17.90;96809.00;;;;6100191;23;20178;-77
2023/05/31 01:15:38;;;;;;;1.57;1.10;;;18.80;46.40;17.90;96801.00;;;;6098475;23;20234;-78
2023/05/31 01:18:18;;;;;;;1.47;1.00;;;18.70;46.50;17.80;96801.00;;;;6098745;23;20242;-77
2023/05/31 01:20:49;;;;;;;1.20;1.10;;;18.70;46.80;17.80;96803.00;;;;6099901;23;20170;-78
2023/05/31 01:23:41;;;;;;;1.03;0.90;;;18.70;47.00;17.70;96808.00;;;;6097260;23;20203;-78
2023/05/31 01:26:38;;;;;;;1.73;0.90;;;18.60;46.70;17.70;96797.00;;;;6097150;23;20684;-78
2023/05/31 01:29:14;;;;;;;1.40;0.83;;;18.60;46.70;17.60;96795.00;;;;6098129;23;20234;-78
2023/05/31 01:31:45;;;;;;;2.17;1.40;;;18.60;46.40;17.60;96798.00;;;;6100031;23;20181;-78
2023/05/31 01:34:15;;;;;;;1.10;0.90;;;18.50;46.40;17.60;96796.00;;;;6100147;23;20251;-78
2023/05/31 01:36:42;;;;;;;2.10;1.20;;;18.50;46.60;17.50;96795.00;;;;6101971;23;20179;-78
2023/05/31 01:39:11;;;;;;;1.00;1.00;;;18.40;46.60;17.50;96796.00;;;;6076918;23;20202;-79
2023/05/31 01:41:44;;;;;;;2.07;0.90;;;18.40;46.70;17.50;96793.00;;;;6077204;23;20175;-78
2023/05/31 01:44:14;;;;;;;1.10;1.00;;;18.40;46.70;17.40;96786.00;;;;6102513;23;20280;-78
2023/05/31 01:46:43;;;;;;;0.97;0.97;;;18.30;46.70;17.40;96785.00;;;;6101838;23;20255;-78
2023/05/31 01:49:11;;;;;;;2.33;1.03;;;18.30;46.70;17.40;96787.00;;;;6102711;23;20205;-78
2023/05/31 01:51:43;;;;;;;1.00;0.90;;;18.30;46.80;17.30;96784.00;;;;6100177;23;20206;-77
2023/05/31 01:54:10;;;;;;;2.17;1.03;;;18.30;46.90;17.30;96779.00;;;;6101483;23;20266;-78
2023/05/31 01:56:41;;;;;;;1.43;0.90;;;18.20;46.90;17.30;96786.00;;;;6097947;23;20274;-78
2023/05/31 01:59:09;;;;;;;2.33;0.80;;;18.20;46.90;17.20;96781.00;;;;6074949;23;20170;-78
2023/05/31 02:01:38;;;;;;;1.93;0.80;;;18.10;46.90;17.20;96790.00;;;;6101522;23;20564;-78
2023/05/31 02:04:05;;;;;;;2.87;1.00;;;18.10;47.10;17.20;96784.00;;;;6099534;23;20538;-78
2023/05/31 02:06:37;;;;;;;1.50;1.17;;;18.10;47.00;17.10;96784.00;;;;6103538;23;20261;-77
2023/05/31 02:09:07;;;;;;;1.57;1.20;;;18.10;46.90;17.10;96786.00;;;;6104330;23;20187;-77
2023/05/31 02:11:34;;;;;;;2.07;1.17;;;18.00;46.70;17.10;96790.00;;;;6131897;23;20181;-78
2023/05/31 02:14:03;;;;;;;1.27;1.10;;;18.00;46.90;17.00;96786.00;;;;6082372;23;20220;-78
2023/05/31 02:16:30;;;;;;;0.93;0.90;;;18.00;47.10;17.00;96789.00;;;;6132832;23;20500;-76
2023/05/31 02:19:00;;;;;;;2.63;1.20;;;17.90;47.20;17.00;96785.00;;;;6132904;23;20193;-77
2023/05/31 02:21:28;;;;;;;1.57;1.30;;;17.90;47.70;17.00;96789.00;;;;6132523;23;20253;-78
2023/05/31 02:23:55;;;;;;;2.20;1.20;;;17.90;47.30;16.90;96796.00;;;;6106027;23;20226;-77
2023/05/31 02:26:23;;;;;;;1.47;1.37;;;17.90;47.10;16.90;96791.00;;;;6132034;23;20250;-76
2023/05/31 02:28:50;;;;;;;3.30;1.00;;;17.80;46.80;16.90;96789.00;;;;6132804;23;20244;-77
2023/05/31 02:31:19;;;;;;;2.93;1.43;;;17.80;46.90;16.90;96793.00;;;;6106643;23;20200;-77
2023/05/31 02:33:48;;;;;;;4.47;1.17;;;17.80;47.00;16.80;96787.00;;;;6133088;23;20724;-77
2023/05/31 02:36:16;;;;;;;1.50;1.03;;;17.80;46.90;16.80;96786.00;;;;6108844;23;20230;-76
2023/05/31 02:38:44;;;;;;;1.07;0.90;;;17.70;46.90;16.80;96788.00;;;;6140542;23;20175;-77
2023/05/31 02:41:12;;;;;;;1.10;1.00;;;17.70;47.00;16.80;96787.00;;;;6109477;23;20170;-78
2023/05/31 02:43:39;;;;;;;1.30;1.20;;;17.70;47.00;16.80;96783.00;;;;6103446;23;20535;-78
2023/05/31 02:46:08;;;;;;;1.70;0.90;;;17.70;46.90;16.70;96784.00;;;;6128370;23;20242;-78
2023/05/31 02:48:37;;;;;;;1.90;1.40;;;17.60;46.90;16.70;96791.00;;;;6128004;23;20209;-77
2023/05/31 02:51:04;;;;;;;1.03;0.80;;;17.60;47.00;16.70;96790.00;;;;6127590;23;20715;-78
2023/05/31 02:53:32;;;;;;;1.43;0.80;;;17.60;47.00;16.70;96786.00;;;;6100401;23;20597;-78
2023/05/31 02:55:59;;;;;;;3.57;1.00;;;17.60;47.10;16.60;96795.00;;;;6077053;23;20254;-78
2023/05/31 02:58:26;;;;;;;1.20;1.10;;;17.50;47.10;16.60;96793.00;;;;6126493;23;20602;-78
2023/05/31 03:00:54;;;;;;;2.67;1.00;;;17.50;47.60;16.60;96794.00;;;;6127895;23;20182;-77
2023/05/31 03:03:21;;;;;;;1.00;0.90;;;17.50;47.10;16.60;96802.00;;;;6079871;23;20342;-78
2023/05/31 03:05:51;;;;;;;2.13;1.27;;;17.50;47.10;16.60;96799.00;;;;6098129;23;20214;-78
2023/05/31 03:08:18;;;;;;;1.00;0.93;;;17.50;47.30;16.60;96793.00;;;;6099273;23;20172;-77
2023/05/31 03:10:46;;;;;;;1.10;1.00;;;17.40;47.40;16.50;96792.00;;;;6100474;23;20586;-78
2023/05/31 03:13:14;;;;;;;1.20;1.00;;;17.40;47.30;16.50;96797.00;;;;6099291;23;20759;-78
2023/05/31 03:15:42;;;;;;;1.37;1.00;;;17.40;47.40;16.50;96796.00;;;;6099957;23;20180;-78
2023/05/31 03:18:09;;;;;;;1.43;1.00;;;17.40;47.40;16.50;96793.00;;;;6074332;23;20179;-78
2023/05/31 03:20:37;;;;;;;1.57;0.70;;;17.40;47.40;16.50;96794.00;;;;6099986;23;20178;-78
2023/05/31 03:23:06;;;;;;;1.80;1.00;;;17.40;47.50;16.50;96792.00;;;;6098261;23;20227;-78
2023/05/31 03:25:34;;;;;;;1.20;0.77;;;17.40;47.50;16.40;96802.00;;;;6097968;23;20178;-77
2023/05/31 03:28:02;;;;;;;1.43;0.97;;;17.40;47.50;16.40;96798.00;;;;6099122;23;20226;-77
2023/05/31 03:30:29;;;;;;;1.17;1.07;;;17.30;47.40;16.40;96793.00;;;;6098128;23;20251;-76
2023/05/31 03:32:57;;;;;;;1.67;0.90;;;17.30;47.60;16.40;96795.00;;;;6099670;23;20199;-78
2023/05/31 03:35:24;;;;;;;2.07;1.30;;;17.30;47.80;16.40;96797.00;;;;6075293;23;20182;-78
2023/05/31 03:37:54;;;;;;;1.33;1.10;;;17.30;47.90;16.40;96803.00;;;;6097848;23;20242;-78
2023/05/31 03:40:22;;;;;;;1.13;0.90;;;17.30;48.00;16.40;96801.00;;;;6100195;23;20175;-77
2023/05/31 03:42:50;;;;;;;1.73;0.90;;;17.30;48.20;16.40;96806.00;;;;6099483;23;20203;-77
2023/05/31 03:45:17;;;;;;;4.07;1.00;;;17.20;48.60;16.40;96798.00;;;;6099633;23;20251;-78
2023/05/31 03:47:44;;;;;;;1.30;1.03;;;17.30;48.50;16.40;96803.00;;;;6096908;23;20681;-76
2023/05/31 03:50:12;;;;;;;1.57;1.03;;;17.30;48.40;16.40;96802.00;;;;6097917;23;20227;-77
2023/05/31 03:52:40;;;;;;;1.63;1.10;;;17.20;48.40;16.40;96804.00;;;;6098389;23;20719;-78
2023/05/31 03:55:09;;;;;;;0.90;0.90;;;17.30;48.60;16.40;96804.00;;;;6097728;23;20234;-77
2023/05/31 03:57:37;;;;;;;1.30;0.90;;;17.30;48.80;16.40;96801.00;;;;6097307;23;20255;-78
2023/05/31 04:00:07;;;;;;;1.77;0.77;;;17.30;49.00;16.40;96801.00;;;;6098277;23;20257;-77
2023/05/31 04:02:35;;;;;;;1.80;1.23;;;17.20;49.10;16.40;96799.00;;;;6098156;23;20207;-78
2023/05/31 04:05:05;;;;;;;3.03;1.17;;;17.20;49.20;16.40;96802.00;;;;6079768;23;20281;-77
2023/05/31 04:07:35;;;;;;;2.73;1.23;;;17.20;49.40;16.40;96813.00;;;;6104025;23;20181;-76
2023/05/31 04:10:02;;;;;;;3.23;1.13;;;17.20;49.30;16.40;96803.00;;;;6129282;23;20285;-76
2023/05/31 04:12:29;;;;;;;1.20;1.00;;;17.20;49.40;16.40;96801.00;;;;6129518;23;20202;-78
2023/05/31 04:14:58;;;;;;;2.27;1.10;;;17.20;49.40;16.40;96807.00;;;;6129953;23;20203;-77
2023/05/31 04:17:25;;;;;;;2.63;1.10;;;17.20;49.40;16.40;96815.00;;;;6128547;23;20226;-77
2023/05/31 04:19:53;;;;;;;1.47;1.20;;;17.30;49.60;16.40;96806.00;;;;6128632;23;20174;-77
2023/05/31 04:22:22;;;;;;;1.90;1.33;;;17.20;49.70;16.30;96804.00;;;;6079702;23;20178;-76
2023/05/31 04:24:50;;;;;;;5.00;1.10;;;17.20;49.50;16.30;96806.00;;;;6129426;23;20222;-78
2023/05/31 04:27:18;;;;;;;1.97;0.90;;;17.20;49.40;16.30;96805.00;;;;6103309;23;20262;-77
2023/05/31 04:29:47;;;;;;;1.33;1.13;;;17.20;49.40;16.30;96811.00;;;;6128668;23;20194;-78
2023/05/31 04:32:16;;;;;;;2.13;0.93;;;17.20;49.50;16.30;96813.00;;;;6129875;23;20571;-79
2023/05/31 04:34:44;;;;;;;1.57;1.10;;;17.20;49.90;16.30;96810.00;;;;6088413;23;20190;-79
2023/05/31 04:37:12;;;;;;;1.10;1.00;;;17.20;50.00;16.40;96817.00;;;;6088107;23;20218;-79
2023/05/31 04:39:39;;;;;;;1.83;1.10;;;17.20;49.80;16.40;96816.00;;;;6086261;23;20178;-80
2023/05/31 04:42:11;;;;;;;1.17;1.07;;;17.20;49.70;16.40;96814.00;;;;6136637;23;20191;-78
2023/05/31 04:44:39;;;;;;;1.57;0.97;;;17.20;49.80;16.40;96820.00;;;;6136048;23;20675;-78
2023/05/31 04:47:07;;;;;;;3.97;1.07;;;17.30;50.10;16.40;96812.00;;;;6136202;23;20175;-78
2023/05/31 04:49:36;;;;;;;1.77;1.30;;;17.30;50.80;16.40;96822.00;;;;6109563;23;20198;-79
2023/05/31 04:52:04;;;;;;;1.47;1.00;;;17.30;50.30;16.50;96817.00;;;;6136170;23;20178;-79
2023/05/31 04:54:31;;;;;;;1.63;1.10;;;17.30;50.20;16.50;96823.00;;;;6112187;23;20195;-79
2023/05/31 04:57:01;;;;;;;1.77;1.40;;;17.30;50.30;16.50;96812.00;;;;6141578;23;20179;-79
2023/05/31 04:59:28;;;;;;;1.63;0.90;;;17.30;50.30;16.50;96822.00;;;;6146693;23;20256;-78
2023/05/31 05:01:56;;;;;;;2.53;1.40;;;17.40;50.20;16.60;96818.00;;;;6123429;23;20198;-78
2023/05/31 05:04:24;;;;;;;2.10;1.03;;;17.40;50.30;16.60;96823.00;;;;6143032;23;20201;-78
2023/05/31 05:06:53;;;;;;;1.50;1.00;;;17.40;50.50;16.60;96819.00;;;;6142791;23;20178;-78
2023/05/31 05:09:20;;;;;;;2.00;1.20;;;17.40;50.70;16.60;96821.00;;;;6141031;23;20182;-78
2023/05/31 05:11:47;;;;;;;2.27;1.37;;;17.40;50.60;16.60;96824.00;;;;6138957;23;20491;-79
2023/05/31 05:14:15;;;;;;;2.73;1.07;;;17.50;50.40;16.70;96826.00;;;;6137595;23;20233;-79
2023/05/31 05:16:42;;;;;;;3.50;1.10;;;17.50;50.40;16.70;96821.00;;;;6111731;23;20170;-80
2023/05/31 05:19:10;;;;;;;2.93;1.23;;;17.50;50.30;16.70;96816.00;;;;6137691;23;20181;-79
2023/05/31 05:21:37;;;;;;;2.20;1.07;;;17.50;50.60;16.70;96823.00;;;;6136001;23;20180;-79
2023/05/31 05:24:06;;;;;;;2.33;1.07;;;17.60;50.70;16.80;96826.00;;;;6138098;23;20199;-79
2023/05/31 05:26:35;;;;;;;2.50;1.10;;;17.60;50.90;16.80;96820.00;;;;6112618;23;20178;-80
2023/05/31 05:29:02;;;;;;;5.50;1.20;;;17.60;51.00;16.80;96831.00;;;;6112836;23;20202;-79
2023/05/31 05:31:30;;;;;;;1.97;1.27;;;17.70;50.90;16.90;96823.00;;;;6140296;23;20194;-79
2023/05/31 05:33:57;;;;;;;1.93;1.00;;;17.70;51.10;16.90;96827.00;;;;6140583;23;20198;-78
2023/05/31 05:36:25;;;;;;;2.03;1.17;;;17.70;51.00;16.90;96828.00;;;;6137980;23;20568;-79
2023/05/31 05:38:52;;;;;;;1.17;1.07;;;17.70;51.20;17.00;96831.00;;;;6137485;23;20178;-79
2023/05/31 05:41:21;;;;;;;3.17;1.57;;;17.80;51.10;17.00;96829.00;;;;6135308;23;20178;-78
2023/05/31 05:43:48;;;;;;;1.47;1.10;;;17.80;50.90;17.10;96837.00;;;;6110356;23;20191;-79
2023/05/31 05:46:16;;;;;;;2.67;1.20;;;17.80;51.00;17.10;96835.00;;;;6136639;23;20175;-77
2023/05/31 05:48:43;;;;;;;2.30;1.00;;;17.90;51.40;17.20;96835.00;;;;6136222;23;20206;-78
2023/05/31 05:51:11;;;;;;;2.50;1.27;;;17.90;51.40;17.20;96829.00;;;;6113255;23;20201;-79
2023/05/31 05:53:39;;;;;;;1.67;1.13;;;18.00;51.40;17.30;96834.00;;;;6139463;23;20222;-79
2023/05/31 05:56:07;;;;;;;1.67;1.00;;;18.00;51.60;17.30;96837.00;;;;6115896;23;20202;-79
2023/05/31 05:58:36;;;;;;;3.47;1.23;;;18.10;51.50;17.40;96835.00;;;;6116142;23;20185;-78
2023/05/31 06:01:03;;;;;;;1.80;1.20;;;18.10;51.10;17.40;96840.00;;;;6116366;23;20187;-78
2023/05/31 06:03:32;;;;;;;3.50;1.20;;;18.20;51.20;17.50;96848.00;;;;6139541;23;20191;-80
2023/05/31 06:05:59;;;;;;;1.70;1.10;;;18.20;51.40;17.50;96859.00;;;;6140718;23;20202;-78
2023/05/31 06:08:27;;;;;;;1.80;1.10;;;18.20;51.70;17.60;96844.00;;;;6139981;23;20178;-80
2023/05/31 06:10:54;;;;;;;1.67;1.27;;;18.30;51.60;17.60;96843.00;;;;6141334;23;20202;-79
2023/05/31 06:13:21;;;;;;;1.63;1.33;;;18.40;51.50;17.70;96855.00;;;;6109474;23;20262;-79
2023/05/31 06:15:50;;;;;;;2.57;0.90;;;18.40;51.50;17.80;96853.00;;;;6136746;23;20502;-79
2023/05/31 06:18:18;;;;;;;1.90;1.10;;;18.50;51.40;17.80;96859.00;;;;6138842;23;20186;-79
2023/05/31 06:20:46;;;;;;;1.87;1.17;;;18.50;51.40;17.90;96851.00;;;;6138913;23;20178;-79
2023/05/31 06:23:14;;;;;;;1.90;1.37;;;18.60;51.20;18.00;96855.00;;;;6112194;23;20451;-80
2023/05/31 06:25:41;;;;;;;2.53;1.33;;;18.70;51.30;18.10;96860.00;;;;6112250;23;20197;-80
2023/05/31 06:28:10;;;;;;;1.20;1.10;;;18.70;51.20;18.20;96861.00;;;;6112321;23;20175;-79
2023/05/31 06:30:37;;;;;;;1.50;1.00;;;18.80;51.40;18.20;96864.00;;;;6111544;23;20198;-80
2023/05/31 06:33:06;;;;;;;1.43;1.13;;;18.90;51.50;18.30;96861.00;;;;6132522;23;20686;-79
2023/05/31 06:35:33;;;;;;;1.70;1.10;;;18.90;51.30;18.40;96863.00;;;;6132764;23;20183;-79
2023/05/31 06:38:02;;;;;;;2.50;1.60;;;19.00;51.30;18.50;96864.00;;;;6131260;23;20238;-79
2023/05/31 06:40:30;;;;;;;4.67;1.47;;;19.10;51.10;18.50;96863.00;;;;6130508;23;20210;-79
2023/05/31 06:42:57;;;;;;;2.83;1.40;;;19.20;51.20;18.60;96860.00;;;;6130478;23;20254;-80
2023/05/31 06:45:25;;;;;;;1.40;1.20;;;19.20;51.00;18.70;96853.00;;;;6102614;23;20202;-80
2023/05/31 06:47:53;;;;;;;1.37;0.97;;;19.30;51.00;18.80;96853.00;;;;6130819;23;20383;-80
2023/05/31 06:50:22;;;;;;;2.70;1.20;;;19.40;51.00;18.80;96853.00;;;;6108033;23;20249;-80
2023/05/31 06:52:49;;;;;;;2.43;1.10;;;19.40;51.10;18.90;96854.00;;;;6135695;23;20187;-80
2023/05/31 06:55:16;;;;;;;2.47;1.20;;;19.50;51.10;19.00;96849.00;;;;6109325;23;20174;-80
2023/05/31 06:57:44;;;;;;;1.40;1.30;;;19.60;51.30;19.10;96854.00;;;;6110607;23;20239;-80
2023/05/31 07:00:13;;;;;;;2.37;1.20;;;19.70;51.30;19.20;96850.00;;;;6110451;23;20643;-80
2023/05/31 07:02:41;;;;;;;2.83;1.10;;;19.80;51.30;19.40;96855.00;;;;6110190;23;20179;-80
2023/05/31 07:05:09;;;;;;;1.90;1.43;;;19.90;51.20;19.50;96859.00;;;;6103938;23;20230;-81
2023/05/31 07:07:38;;;;;;;2.87;1.33;;;20.00;51.10;19.70;96855.00;;;;6105226;23;20206;-81
2023/05/31 07:10:06;;;;;;;1.77;1.37;;;20.10;50.90;19.90;96856.00;;;;6105954;23;20534;-81
2023/05/31 07:12:34;;;;;;;2.40;1.03;;;20.30;50.90;20.00;96859.00;;;;6105285;23;20182;-81
2023/05/31 07:15:01;;;;;;;2.30;0.80;;;20.40;50.50;20.20;96858.00;;;;6102599;23;20686;-82
2023/05/31 07:17:29;;;;;;;1.33;1.00;;;20.60;50.30;20.30;96850.00;;;;6102011;23;20172;-83
2023/05/31 07:19:56;;;;;;;3.07;1.53;;;20.70;50.20;20.50;96855.00;;;;6101201;23;20167;-83
2023/05/31 07:22:25;;;;;;;2.27;1.30;;;20.90;50.10;20.60;96847.00;;;;6099333;23;20261;-83
2023/05/31 07:24:55;;;;;;;2.03;1.00;;;21.00;49.60;20.80;96866.00;;;;6100228;23;20271;-83
2023/05/31 07:27:25;;;;;;;4.40;1.20;;;21.20;49.30;20.90;96854.00;;;;6098824;23;20172;-83
2023/05/31 07:29:54;;;;;;;1.30;1.10;;;21.40;49.20;21.10;96856.00;;;;6099746;23;20188;-83
2023/05/31 07:32:21;;;;;;;1.97;1.07;;;21.50;49.00;21.20;96855.00;;;;6098189;23;20229;-83
2023/05/31 07:34:48;;;;;;;2.70;1.13;;;21.60;48.50;21.40;96862.00;;;;6103487;23;20183;-82
2023/05/31 07:37:16;;;;;;;2.33;1.00;;;21.80;48.40;21.50;96860.00;;;;6119403;23;20178;-81
2023/05/31 07:39:44;;;;;;;2.93;0.83;;;21.90;48.20;21.70;96862.00;;;;6123197;23;20190;-82
2023/05/31 07:42:13;;;;;;;3.67;1.30;;;22.10;48.10;21.90;96866.00;;;;6123465;23;20200;-81
2023/05/31 07:44:41;;;;;;;2.17;1.23;;;22.20;47.80;22.00;96856.00;;;;6106725;23;20602;-83
2023/05/31 07:47:09;;;;;;;1.63;0.80;;;22.40;47.60;22.20;96860.00;;;;6101890;23;20182;-82
2023/05/31 07:49:36;;;;;;;2.47;1.17;;;22.50;47.50;22.30;96860.00;;;;6100155;23;20168;-81
2023/05/31 07:52:04;;;;;;;1.67;1.20;;;22.70;47.50;22.50;96862.00;;;;6103933;23;20226;-82
2023/05/31 07:54:33;;;;;;;2.20;1.40;;;22.80;47.20;22.60;96855.00;;;;6105061;23;20800;-82
2023/05/31 07:57:01;;;;;;;2.57;1.27;;;23.00;46.90;22.80;96854.00;;;;6099599;23;20199;-82
2023/05/31 07:59:30;;;;;;;2.03;1.40;;;23.10;46.80;22.90;96851.00;;;;6074253;23;20204;-82
2023/05/31 08:01:57;;;;;;;2.57;1.10;;;23.30;46.70;23.10;96848.00;;;;6102020;23;20171;-81
2023/05/31 08:04:25;;;;;;;2.03;1.10;;;23.40;46.30;23.20;96848.00;;;;6102291;23;20211;-82
2023/05/31 08:06:52;;;;;;;1.03;1.00;;;23.60;46.20;23.30;96853.00;;;;6107104;23;20237;-82
2023/05/31 08:09:20;;;;;;;3.23;1.10;;;23.70;46.20;23.50;96844.00;;;;6107756;23;20202;-82
2023/05/31 08:11:47;;;;;;;2.10;1.20;;;23.80;46.00;23.60;96847.00;;;;6133371;23;20194;-82
2023/05/31 08:14:14;;;;;;;1.90;1.30;;;24.00;46.00;23.80;96853.00;;;;6133010;23;20219;-82
2023/05/31 08:16:43;;;;;;;1.67;0.97;;;24.10;46.00;23.90;96848.00;;;;6132550;23;20170;-82
2023/05/31 08:19:12;;;;;;;2.40;1.10;;;24.30;45.70;24.10;96839.00;;;;6106370;23;20596;-82
2023/05/31 08:21:39;;;;;;;1.60;0.97;;;24.40;45.70;24.20;96843.00;;;;6106909;23;20171;-82
2023/05/31 08:24:07;;;;;;;1.37;1.07;;;24.50;45.40;24.40;96841.00;;;;6105751;23;20209;-83
2023/05/31 08:26:35;;;;;;;1.60;1.37;;;24.70;45.00;24.50;96843.00;;;;6085681;23;20175;-82
2023/05/31 08:29:02;;;;;;;1.73;1.10;;;24.80;45.00;24.70;96840.00;;;;6107391;23;20239;-82
2023/05/31 08:31:34;;;;;;;3.37;1.13;;;25.00;44.90;24.80;96843.00;;;;6132988;23;20264;-82
2023/05/31 08:34:03;;;;;;;2.20;1.20;;;25.10;44.70;24.90;96836.00;;;;6135471;23;20274;-80
2023/05/31 08:36:31;;;;;;;1.77;1.27;;;25.30;44.40;25.10;96835.00;;;;6135115;23;20196;-82
2023/05/31 08:38:58;;;;;;;2.40;1.60;;;25.40;44.20;25.20;96832.00;;;;6084899;23;20202;-80
2023/05/31 08:41:30;;;;;;;1.00;0.90;;;25.60;44.40;25.40;96831.00;;;;6133023;23;20202;-81
2023/05/31 08:43:58;;;;;;;1.37;1.10;;;25.70;44.20;25.50;96832.00;;;;6086913;23;20194;-81
2023/05/31 08:46:26;;;;;;;2.07;1.23;;;25.80;43.80;25.70;96843.00;;;;6135428;23;20198;-82
2023/05/31 08:49:06;;;;;;;1.60;1.47;;;26.00;43.40;25.80;96841.00;;;;6109212;23;20605;-81
2023/05/31 08:51:37;;;;;;;1.30;0.93;;;26.10;43.20;26.00;96836.00;;;;6110639;23;20191;-81
2023/05/31 08:54:07;;;;;;;1.93;1.37;;;26.20;42.80;26.10;96843.00;;;;6084368;23;20205;-82
2023/05/31 08:56:38;;;;;;;3.50;1.07;;;26.40;43.10;26.30;96825.00;;;;6133166;23;20175;-82
2023/05/31 08:59:11;;;;;;;1.33;1.00;;;26.60;42.40;26.50;96838.00;;;;6106324;23;20673;-83
2023/05/31 09:01:39;;;;;;;1.90;1.00;;;26.70;42.40;26.60;96830.00;;;;6129898;23;20518;-84
2023/05/31 09:04:08;;;;;;;3.50;1.10;;;26.80;42.20;26.80;96837.00;;;;6104119;23;20201;-82
2023/05/31 09:06:36;;;;;;;2.00;1.17;;;27.00;42.00;26.90;96837.00;;;;6129655;23;20745;-83
2023/05/31 09:09:07;;;;;;;1.43;1.10;;;27.20;42.00;27.10;96833.00;;;;6130949;23;20179;-84
2023/05/31 09:11:37;;;;;;;1.40;0.93;;;27.30;41.70;27.30;96834.00;;;;6131129;23;20273;-83
2023/05/31 09:14:05;;;;;;;3.50;1.10;;;27.50;41.60;27.40;96834.00;;;;6105290;23;20202;-85
2023/05/31 09:16:32;;;;;;;1.77;1.00;;;27.60;41.40;27.60;96836.00;;;;6128544;23;20207;-83
2023/05/31 09:19:06;;;;;;;2.20;1.53;;;27.80;41.10;27.70;96835.00;;;;6103006;23;20710;-84
2023/05/31 09:21:42;;;;;;;1.65;1.20;;;28.00;40.50;27.90;96839.00;;;;6130426;23;20206;-83
2023/05/31 09:24:10;;;;;;;1.70;0.93;;;28.20;39.90;28.10;96833.00;;;;6128392;23;20249;-84
2023/05/31 09:26:48;;;;;;;2.13;1.10;;;28.30;40.50;28.30;96837.00;;;;6128323;23;20177;-85
2023/05/31 09:29:17;;;;;;;1.23;0.85;;;28.60;39.80;28.50;96842.00;;;;6131616;23;20170;-81
2023/05/31 09:31:45;;;;;;;4.25;1.00;;;28.80;39.50;28.60;96834.00;;;;6106812;23;20198;-82
2023/05/31 09:34:34;;;;;;;1.05;0.90;;;29.00;39.00;28.80;96840.00;;;;6105287;23;20591;-82
2023/05/31 09:37:04;;;;;;;3.97;1.05;;;29.20;37.30;29.00;96831.00;;;;6093448;23;20174;-82
2023/05/31 09:39:31;;;;;;;1.55;1.05;;;29.50;38.30;29.10;96835.00;;;;6137328;23;20178;-83
2023/05/31 09:41:59;;;;;;;1.30;1.00;;;29.60;38.10;29.20;96831.00;;;;6142184;23;20179;-83
2023/05/31 09:44:28;;;;;;;3.75;0.82;;;29.80;37.90;29.40;96826.00;;;;6140277;23;20250;-85
2023/05/31 09:46:56;;;;;;;1.85;1.20;;;30.10;37.70;29.60;96821.00;;;;6092382;23;20170;-83
2023/05/31 09:49:24;;;;;;;1.08;0.90;;;30.30;37.60;29.70;96822.00;;;;6110156;23;20242;-84
2023/05/31 09:51:52;;;;;;;2.63;0.88;;;30.50;37.20;29.90;96831.00;;;;6138913;23;20197;-82
2023/05/31 09:54:25;;;;;;;1.33;1.17;;;30.70;36.80;30.00;96828.00;;;;6131233;23;20539;-85
2023/05/31 09:56:52;;;;;;;1.70;1.13;;;30.80;35.80;30.10;96826.00;;;;6133645;23;20174;-82
2023/05/31 09:59:21;;;;;;;1.55;1.10;;;31.00;36.40;30.30;96818.00;;;;6134307;23;20202;-82
2023/05/31 10:01:50;;;;;;;4.28;1.40;;;31.20;36.40;30.40;96808.00;;;;6134790;23;20175;-83
2023/05/31 10:04:18;;;;;;;2.55;1.10;;;31.40;35.80;30.60;96826.00;;;;6137211;23;20198;-83
2023/05/31 10:06:46;;;;;;;1.92;1.25;;;31.60;36.20;30.70;96827.00;;;;6108236;23;20188;-83
2023/05/31 10:09:13;;;;;;;1.55;1.35;;;31.70;35.90;30.80;96828.00;;;;6108955;23;20198;-83
2023/05/31 10:11:47;;;;;;;1.52;0.90;;;31.90;35.40;31.00;96823.00;;;;6107341;23;20198;-84
2023/05/31 10:14:24;;;;;;;1.50;1.08;;;32.00;34.60;31.10;96818.00;;;;6098624;23;20923;-83
2023/05/31 10:16:56;;;;;;;1.20;1.10;;;32.20;34.90;31.20;96824.00;;;;6098815;23;20702;-83
2023/05/31 10:19:32;;;;;;;1.60;1.02;;;32.20;34.60;31.30;96824.00;;;;6097052;23;20199;-83
2023/05/31 10:22:02;;;;;;;1.90;0.90;;;32.30;34.10;31.40;96828.00;;;;6096706;23;20201;-82
2023/05/31 10:24:41;;;;;;;1.95;1.00;;;32.40;33.90;31.40;96828.00;;;;6096004;23;20202;-84
2023/05/31 10:27:18;;;;;;;2.25;1.05;;;32.40;34.20;31.50;96825.00;;;;6095637;23;20171;-83
2023/05/31 10:29:52;;;;;;;3.95;1.25;;;32.50;34.00;31.60;96820.00;;;;6072147;23;20171;-83
2023/05/31 10:32:25;;;;;;;4.05;0.98;;;32.50;33.30;31.60;96818.00;;;;6095449;23;20195;-83
2023/05/31 10:34:53;;;;;;;3.15;1.20;;;32.50;33.80;31.70;96822.00;;;;6098615;23;20206;-82
2023/05/31 10:37:23;;;;;;;1.75;1.25;;;32.50;34.10;31.70;96805.00;;;;6099241;23;20175;-83
2023/05/31 10:39:59;;;;;;;1.70;1.35;;;32.50;33.50;31.80;96807.00;;;;6098109;23;20172;-84
2023/05/31 10:42:39;;;;;;;2.35;1.08;;;32.50;33.30;31.80;96809.00;;;;6097027;23;20181;-83
2023/05/31 10:45:16;;;;;;;1.63;1.35;;;32.40;33.30;31.80;96814.00;;;;6099025;23;20230;-84
2023/05/31 10:47:53;;;;;;;2.45;1.20;;;32.40;33.20;31.80;96809.00;;;;6098531;23;20166;-83
2023/05/31 10:50:24;;;;;;;1.70;1.17;;;32.40;33.00;31.90;96805.00;;;;6099026;23;20156;-84
2023/05/31 10:52:51;;;;;;;3.00;1.13;;;32.40;33.30;31.80;96804.00;;;;6073354;23;20678;-83
2023/05/31 10:55:23;;;;;;;1.73;1.38;;;32.30;32.90;31.80;96797.00;;;;6097909;23;20176;-82
2023/05/31 10:57:57;;;;;;;1.90;1.00;;;32.20;32.90;31.70;96799.00;;;;6100738;23;20187;-81
2023/05/31 11:00:26;;;;;;;1.52;1.42;;;32.20;33.00;31.50;96801.00;;;;6098333;23;20183;-83
2023/05/31 11:02:58;;;;;;;3.97;1.60;;;32.00;32.80;31.40;96803.00;;;;6099522;23;20179;-84